createdAt,value
2017-11-13T00:01:54.782Z,7.27
2017-11-13T00:04:25.842Z,5.20
2017-11-13T00:06:55.218Z,4.80
2017-11-13T00:09:24.602Z,5.97
2017-11-13T00:11:54.321Z,7.70
2017-11-13T00:14:23.694Z,9.20
2017-11-13T00:16:53.067Z,6.33
2017-11-13T00:19:22.742Z,7.13
2017-11-13T00:21:52.117Z,3.83
2017-11-13T00:24:21.766Z,7.03
2017-11-13T00:26:51.922Z,3.43
2017-11-13T00:29:21.600Z,3.73
2017-11-13T00:31:51.286Z,6.50
2017-11-13T00:34:20.661Z,7.43
2017-11-13T00:36:50.041Z,6.33
2017-11-13T00:39:19.792Z,7.37
2017-11-13T00:41:49.149Z,6.20
2017-11-13T00:44:18.609Z,6.63
2017-11-13T00:46:48.540Z,8.50
2017-11-13T00:49:17.920Z,5.27
2017-11-13T00:51:47.291Z,8.67
2017-11-13T00:54:16.933Z,3.83
2017-11-13T00:56:46.298Z,4.63
2017-11-13T00:59:15.673Z,5.93
2017-11-13T01:01:45.355Z,6.93
2017-11-13T01:04:14.992Z,3.97
2017-11-13T01:06:44.381Z,4.77
2017-11-13T01:09:15.174Z,7.63
2017-11-13T01:11:44.542Z,7.73
2017-11-13T01:14:13.894Z,5.67
2017-11-13T01:16:43.986Z,5.73
2017-11-13T01:19:13.356Z,8.20
2017-11-13T01:21:43.521Z,5.90
2017-11-13T01:24:13.470Z,5.97
2017-11-13T01:26:42.863Z,3.13
2017-11-13T01:29:13.342Z,7.47
2017-11-13T01:31:42.718Z,9.43
2017-11-13T01:34:13.690Z,3.27
2017-11-13T01:36:43.860Z,5.63
2017-11-13T01:39:13.595Z,4.83
2017-11-13T01:41:42.956Z,3.07
2017-11-13T01:44:12.331Z,7.60
2017-11-13T01:46:42.072Z,4.03
2017-11-13T01:49:11.523Z,9.27
2017-11-13T01:51:40.936Z,4.10
2017-11-13T01:54:10.565Z,4.93
2017-11-13T01:56:39.736Z,5.33
2017-11-13T01:59:09.564Z,5.07
2017-11-13T02:01:40.787Z,7.70
2017-11-13T02:04:10.099Z,5.90
2017-11-13T02:06:38.530Z,4.10
2017-11-13T02:09:07.347Z,4.20
2017-11-13T02:11:36.283Z,5.87
2017-11-13T02:14:04.934Z,5.77
2017-11-13T02:16:35.234Z,5.40
2017-11-13T02:19:03.925Z,11.47
2017-11-13T02:21:32.927Z,8.23
2017-11-13T02:24:02.081Z,4.63
2017-11-13T02:26:31.800Z,9.83
2017-11-13T02:29:00.285Z,3.70
2017-11-13T02:31:29.742Z,7.00
2017-11-13T02:33:58.286Z,8.67
2017-11-13T02:36:27.127Z,8.13
2017-11-13T02:38:55.660Z,5.53
2017-11-13T02:41:24.322Z,5.37
2017-11-13T02:43:53.065Z,4.47
2017-11-13T02:46:21.911Z,8.43
2017-11-13T02:48:50.930Z,9.27
2017-11-13T02:51:19.616Z,6.17
2017-11-13T02:53:48.776Z,6.73
2017-11-13T02:56:17.293Z,5.83
2017-11-13T02:58:45.560Z,6.47
2017-11-13T03:01:15.288Z,6.60
2017-11-13T03:03:44.309Z,4.93
2017-11-13T03:06:13.368Z,4.80
2017-11-13T03:08:42.546Z,6.90
2017-11-13T03:11:11.737Z,5.67
2017-11-13T03:13:41.672Z,6.07
2017-11-13T03:16:12.163Z,2.37
2017-11-13T03:18:40.863Z,4.57
2017-11-13T03:21:10.228Z,4.33
2017-11-13T03:23:40.264Z,6.57
2017-11-13T03:26:09.608Z,7.13
2017-11-13T03:28:38.649Z,6.83
2017-11-13T03:31:08.373Z,4.10
2017-11-13T03:33:37.735Z,8.33
2017-11-13T03:36:06.902Z,6.77
2017-11-13T03:38:36.603Z,6.17
2017-11-13T03:41:06.741Z,8.87
2017-11-13T03:43:36.387Z,5.47
2017-11-13T03:46:07.060Z,4.50
2017-11-13T03:48:38.140Z,6.77
2017-11-13T03:51:07.532Z,8.77
2017-11-13T03:53:37.145Z,7.93
2017-11-13T03:56:07.118Z,9.23
2017-11-13T03:58:37.261Z,5.63
2017-11-13T04:01:06.647Z,5.70
2017-11-13T04:03:36.633Z,8.10
2017-11-13T04:06:07.602Z,6.10
2017-11-13T04:08:37.581Z,3.50
2017-11-13T04:11:07.096Z,5.67
2017-11-13T04:13:37.868Z,8.33
2017-11-13T04:16:07.320Z,11.17
2017-11-13T04:18:36.691Z,4.53
2017-11-13T04:21:24.427Z,9.43
2017-11-13T04:23:53.791Z,6.97
2017-11-13T04:26:24.051Z,11.27
2017-11-13T04:28:53.805Z,12.80
2017-11-13T04:31:23.037Z,13.40
2017-11-13T04:33:52.791Z,9.60
2017-11-13T04:36:22.996Z,6.47
2017-11-13T04:38:52.389Z,7.23
2017-11-13T04:41:22.387Z,9.40
2017-11-13T04:43:51.767Z,11.63
2017-11-13T04:46:22.248Z,8.33
2017-11-13T04:48:51.627Z,15.43
2017-11-13T04:51:21.015Z,6.90
2017-11-13T04:53:50.962Z,7.43
2017-11-13T04:56:20.416Z,7.23
2017-11-13T04:58:49.785Z,10.70
2017-11-13T05:01:19.537Z,13.50
2017-11-13T05:03:48.899Z,11.73
2017-11-13T05:06:17.767Z,16.43
2017-11-13T05:08:47.297Z,6.90
2017-11-13T05:11:16.318Z,12.47
2017-11-13T05:13:45.698Z,13.27
2017-11-13T05:16:15.399Z,13.50
2017-11-13T05:18:44.242Z,16.23
2017-11-13T05:21:13.622Z,22.33
2017-11-13T05:23:43.179Z,21.57
2017-11-13T05:26:11.861Z,9.97
2017-11-13T05:28:41.037Z,20.17
2017-11-13T05:31:10.708Z,15.87
2017-11-13T05:33:40.362Z,12.73
2017-11-13T05:36:11.356Z,22.73
2017-11-13T05:38:40.727Z,13.23
2017-11-13T05:41:10.206Z,15.13
2017-11-13T05:43:39.590Z,14.23
2017-11-13T05:46:08.985Z,15.50
2017-11-13T05:48:38.366Z,10.13
2017-11-13T05:51:08.084Z,20.87
2017-11-13T05:53:37.550Z,20.97
2017-11-13T05:56:06.923Z,17.87
2017-11-13T05:58:37.706Z,25.70
2017-11-13T06:01:07.082Z,16.33
2017-11-13T06:03:36.531Z,15.13
2017-11-13T06:06:08.307Z,15.77
2017-11-13T06:08:39.140Z,12.40
2017-11-13T06:11:08.550Z,20.07
2017-11-13T06:13:37.933Z,13.87
2017-11-13T06:16:08.650Z,17.63
2017-11-13T06:18:38.029Z,23.30
2017-11-13T06:21:07.397Z,17.97
2017-11-13T06:23:37.098Z,19.93
2017-11-13T06:26:06.489Z,19.33
2017-11-13T06:28:35.948Z,20.30
2017-11-13T06:31:05.694Z,17.60
2017-11-13T06:33:36.107Z,12.17
2017-11-13T06:36:06.136Z,18.07
2017-11-13T06:38:36.462Z,20.07
2017-11-13T06:41:06.987Z,22.00
2017-11-13T06:43:36.474Z,16.30
2017-11-13T06:46:06.553Z,14.30
2017-11-13T06:48:37.095Z,17.63
2017-11-13T06:51:06.563Z,14.37
2017-11-13T06:53:35.916Z,20.67
2017-11-13T06:56:05.623Z,13.13
2017-11-13T06:58:36.355Z,18.97
2017-11-13T07:01:05.721Z,15.67
2017-11-13T07:03:35.112Z,12.03
2017-11-13T07:06:04.719Z,17.93
2017-11-13T07:08:37.095Z,10.67
2017-11-13T07:11:07.004Z,18.13
2017-11-13T07:13:36.435Z,19.33
2017-11-13T07:16:06.763Z,17.03
2017-11-13T07:18:38.058Z,12.87
2017-11-13T07:21:07.466Z,17.07
2017-11-13T07:23:36.670Z,13.17
2017-11-13T07:26:06.319Z,12.67
2017-11-13T07:28:36.542Z,20.83
2017-11-13T07:31:06.399Z,13.13
2017-11-13T07:33:36.012Z,19.90
2017-11-13T07:36:06.388Z,19.73
2017-11-13T07:38:37.458Z,15.27
2017-11-13T07:41:07.402Z,14.23
2017-11-13T07:43:36.777Z,16.73
2017-11-13T07:46:06.262Z,22.87
2017-11-13T07:48:36.015Z,17.27
2017-11-13T07:51:05.481Z,12.20
2017-11-13T07:53:34.884Z,23.63
2017-11-13T07:56:04.596Z,19.17
2017-11-13T07:58:34.527Z,13.47
2017-11-13T08:01:03.768Z,11.13
2017-11-13T08:03:35.567Z,12.37
2017-11-13T08:06:04.970Z,20.43
2017-11-13T08:08:34.356Z,12.30
2017-11-13T08:11:07.479Z,12.60
2017-11-13T08:13:38.896Z,16.97
2017-11-13T08:16:09.994Z,15.07
2017-11-13T08:18:40.523Z,11.43
2017-11-13T08:21:12.270Z,9.63
2017-11-13T08:23:42.215Z,9.77
2017-11-13T08:26:11.487Z,10.27
2017-11-13T08:28:40.663Z,6.47
2017-11-13T08:31:10.021Z,9.07
2017-11-13T08:33:39.822Z,14.07
2017-11-13T08:36:09.722Z,16.83
2017-11-13T08:38:40.210Z,10.30
2017-11-13T08:41:09.608Z,8.93
2017-11-13T08:43:39.778Z,11.13
2017-11-13T08:46:09.165Z,12.90
2017-11-13T08:48:39.330Z,12.33
2017-11-13T08:51:09.808Z,12.63
2017-11-13T08:53:39.184Z,8.90
2017-11-13T08:56:08.553Z,11.53
2017-11-13T08:58:38.497Z,10.17
2017-11-13T09:01:07.873Z,10.50
2017-11-13T09:03:37.238Z,9.67
2017-11-13T09:06:08.620Z,9.23
2017-11-13T09:08:38.267Z,9.47
2017-11-13T09:11:11.434Z,6.60
2017-11-13T09:13:42.773Z,7.80
2017-11-13T09:16:12.797Z,8.97
2017-11-13T09:18:42.271Z,16.77
2017-11-13T09:21:11.639Z,10.73
2017-11-13T09:23:41.392Z,9.43
2017-11-13T09:26:10.777Z,9.27
2017-11-13T09:28:40.922Z,9.47
2017-11-13T09:31:13.781Z,7.77
2017-11-13T09:33:44.829Z,12.60
2017-11-13T09:36:13.953Z,12.80
2017-11-13T09:38:42.945Z,13.80
2017-11-13T09:41:11.966Z,7.87
2017-11-13T09:43:46.327Z,14.47
2017-11-13T09:46:16.365Z,19.13
2017-11-13T09:48:46.712Z,11.40
2017-11-13T09:51:15.721Z,7.93
2017-11-13T09:53:45.984Z,7.67
2017-11-13T09:56:15.407Z,5.70
2017-11-13T09:58:44.850Z,11.50
2017-11-13T10:01:16.372Z,10.87
2017-11-13T10:03:46.631Z,8.67
2017-11-13T10:06:17.289Z,8.10
2017-11-13T10:08:47.817Z,14.20
2017-11-13T10:11:17.974Z,8.90
2017-11-13T10:13:48.445Z,8.47
2017-11-13T10:16:18.559Z,11.73
2017-11-13T10:18:47.560Z,8.77
2017-11-13T10:21:23.257Z,11.70
2017-11-13T10:23:53.697Z,8.33
2017-11-13T10:26:22.549Z,12.97
2017-11-13T10:28:52.744Z,8.23
2017-11-13T10:31:22.180Z,5.60
2017-11-13T10:33:51.460Z,12.90
2017-11-13T10:36:20.743Z,12.57
2017-11-13T10:38:50.476Z,9.47
2017-11-13T10:41:20.375Z,13.57
2017-11-13T10:43:49.649Z,10.60
2017-11-13T10:46:19.306Z,9.57
2017-11-13T10:48:49.192Z,12.23
2017-11-13T10:51:18.727Z,10.93
2017-11-13T10:53:48.637Z,10.90
2017-11-13T10:56:17.712Z,7.73
2017-11-13T10:58:46.975Z,8.47
2017-11-13T11:01:15.773Z,13.17
2017-11-13T11:03:45.448Z,5.87
2017-11-13T11:06:14.441Z,9.23
2017-11-13T11:08:44.040Z,11.37
2017-11-13T11:11:13.429Z,12.27
2017-11-13T11:13:42.703Z,10.03
2017-11-13T11:16:16.687Z,7.53
2017-11-13T11:18:47.553Z,4.93
2017-11-13T11:21:18.078Z,6.47
2017-11-13T11:23:52.043Z,8.67
2017-11-13T11:26:39.290Z,10.37
2017-11-13T11:29:12.092Z,7.43
2017-11-13T11:31:41.530Z,8.40
2017-11-13T11:34:27.515Z,7.80
2017-11-13T11:37:00.889Z,9.77
2017-11-13T11:39:30.321Z,9.80
2017-11-13T11:42:01.342Z,11.67
2017-11-13T11:47:43.147Z,11.57
2017-11-13T11:50:12.457Z,7.80
2017-11-13T11:52:41.887Z,12.53
2017-11-13T11:58:11.280Z,6.90
2017-11-13T12:00:40.728Z,4.97
2017-11-13T12:03:10.593Z,6.30
2017-11-13T12:05:39.525Z,6.00
2017-11-13T12:08:08.605Z,8.40
2017-11-13T12:10:38.840Z,3.63
2017-11-13T12:13:08.312Z,9.93
2017-11-13T12:15:38.574Z,9.53
2017-11-13T12:18:07.804Z,8.67
2017-11-13T12:20:36.898Z,7.13
2017-11-13T12:23:07.031Z,5.13
2017-11-13T12:25:37.266Z,8.57
2017-11-13T12:28:07.636Z,5.97
2017-11-13T12:30:37.787Z,4.33
2017-11-13T12:33:07.460Z,9.30
2017-11-13T12:35:37.101Z,5.20
2017-11-13T12:38:06.577Z,9.93
2017-11-13T12:40:36.061Z,9.00
2017-11-13T12:43:05.860Z,9.53
2017-11-13T12:45:35.424Z,6.73
2017-11-13T12:48:04.349Z,12.27
2017-11-13T12:50:34.187Z,7.77
2017-11-13T12:53:03.836Z,9.63
2017-11-13T12:55:34.417Z,9.10
2017-11-13T12:58:05.027Z,12.10
2017-11-13T13:00:34.749Z,8.97
2017-11-13T13:03:04.209Z,9.03
2017-11-13T13:05:33.794Z,5.67
2017-11-13T13:08:03.883Z,9.07
2017-11-13T13:10:34.714Z,8.70
2017-11-13T13:13:05.379Z,6.27
2017-11-13T13:15:34.933Z,7.77
2017-11-13T13:18:04.445Z,15.33
2017-11-13T13:20:33.727Z,8.87
2017-11-13T13:23:04.329Z,8.37
2017-11-13T13:25:34.876Z,7.80
2017-11-13T13:28:04.864Z,11.10
2017-11-13T13:30:34.697Z,9.40
2017-11-13T13:33:04.915Z,13.83
2017-11-13T13:35:35.110Z,10.90
2017-11-13T13:38:04.246Z,8.07
2017-11-13T13:40:33.755Z,9.60
2017-11-13T13:43:03.526Z,11.20
2017-11-13T13:45:33.511Z,10.17
2017-11-13T13:48:03.292Z,9.13
2017-11-13T13:50:32.773Z,9.13
2017-11-13T13:53:03.220Z,8.90
2017-11-13T13:55:32.757Z,10.73
2017-11-13T13:58:02.094Z,11.97
2017-11-13T14:00:32.996Z,12.60
2017-11-13T14:03:02.069Z,11.03
2017-11-13T14:05:31.429Z,10.37
2017-11-13T14:08:02.044Z,14.77
2017-11-13T14:10:32.330Z,13.83
2017-11-13T14:13:03.280Z,7.60
2017-11-13T14:15:33.519Z,13.20
2017-11-13T14:18:05.552Z,12.20
2017-11-13T14:20:35.083Z,9.83
2017-11-13T14:23:06.769Z,14.03
2017-11-13T14:25:37.280Z,8.30
2017-11-13T14:28:06.576Z,10.80
2017-11-13T14:30:36.388Z,8.97
2017-11-13T14:33:06.516Z,12.77
2017-11-13T14:35:36.018Z,9.80
2017-11-13T14:38:14.127Z,9.33
2017-11-13T14:40:45.670Z,9.07
2017-11-13T14:43:15.984Z,10.63
2017-11-13T14:45:46.217Z,14.57
2017-11-13T14:48:16.806Z,11.20
2017-11-13T14:50:46.263Z,11.63
2017-11-13T14:53:37.576Z,9.27
2017-11-13T14:56:10.696Z,8.57
2017-11-13T14:58:40.156Z,7.30
2017-11-13T15:01:09.704Z,13.47
2017-11-13T15:03:39.163Z,10.03
2017-11-13T15:06:09.038Z,7.70
2017-11-13T15:08:38.479Z,8.43
2017-11-13T15:11:07.892Z,7.60
2017-11-13T15:13:37.750Z,5.97
2017-11-13T15:16:07.120Z,9.10
2017-11-13T15:18:36.759Z,8.07
2017-11-13T15:21:07.273Z,9.90
2017-11-13T15:23:36.628Z,9.83
2017-11-13T15:26:05.993Z,8.83
2017-11-13T15:28:35.534Z,9.37
2017-11-13T15:31:04.560Z,7.53
2017-11-13T15:33:33.585Z,7.73
2017-11-13T15:36:03.315Z,15.63
2017-11-13T15:38:33.017Z,8.23
2017-11-13T15:41:05.433Z,11.03
2017-11-13T15:43:34.815Z,7.87
2017-11-13T15:46:04.204Z,11.10
2017-11-13T15:48:34.347Z,12.83
2017-11-13T15:51:03.750Z,10.37
2017-11-13T15:53:33.133Z,14.97
2017-11-13T15:56:09.997Z,17.23
2017-11-13T15:58:39.572Z,10.03
2017-11-13T16:01:09.012Z,14.43
2017-11-13T16:03:39.438Z,13.97
2017-11-13T16:06:09.012Z,23.00
2017-11-13T16:08:38.413Z,10.23
2017-11-13T16:11:07.985Z,10.40
2017-11-13T16:13:37.370Z,6.07
2017-11-13T16:16:06.805Z,12.00
2017-11-13T16:18:37.493Z,9.13
2017-11-13T16:21:06.712Z,14.37
2017-11-13T16:23:36.113Z,14.73
2017-11-13T16:26:06.512Z,14.40
2017-11-13T16:28:35.714Z,15.97
2017-11-13T16:31:04.857Z,18.03
2017-11-13T16:33:34.582Z,15.20
2017-11-13T16:36:03.994Z,17.77
2017-11-13T16:38:33.378Z,17.17
2017-11-13T16:41:03.831Z,16.37
2017-11-13T16:43:33.522Z,14.23
2017-11-13T16:46:03.321Z,15.73
2017-11-13T16:48:32.696Z,17.17
2017-11-13T16:51:02.073Z,16.47
2017-11-13T16:53:31.962Z,21.03
2017-11-13T16:56:01.128Z,14.63
2017-11-13T16:58:31.601Z,15.37
2017-11-13T17:01:00.988Z,15.20
2017-11-13T17:03:30.393Z,13.13
2017-11-13T17:06:00.058Z,14.40
2017-11-13T17:08:30.029Z,10.80
2017-11-13T17:10:59.400Z,9.20
2017-11-13T17:13:29.251Z,18.40
2017-11-13T17:15:58.629Z,25.97
2017-11-13T17:18:28.034Z,15.30
2017-11-13T17:20:58.520Z,12.40
2017-11-13T17:23:27.890Z,9.80
2017-11-13T17:25:57.295Z,14.07
2017-11-13T17:28:27.093Z,14.00
2017-11-13T17:30:56.577Z,12.63
2017-11-13T17:33:25.946Z,16.60
2017-11-13T17:35:56.432Z,21.13
2017-11-13T17:38:25.828Z,14.63
2017-11-13T17:40:56.210Z,12.03
2017-11-13T17:43:25.617Z,11.37
2017-11-13T17:45:55.004Z,11.13
2017-11-13T17:48:24.484Z,12.77
2017-11-13T17:50:53.848Z,11.47
2017-11-13T17:53:22.529Z,7.70
2017-11-13T17:55:52.198Z,17.80
2017-11-13T17:58:21.568Z,20.90
2017-11-13T18:00:50.770Z,14.13
2017-11-13T18:03:21.253Z,10.57
2017-11-13T18:05:51.301Z,16.00
2017-11-13T18:08:20.709Z,11.30
2017-11-13T18:10:51.467Z,17.37
2017-11-13T18:13:20.844Z,13.00
2017-11-13T18:15:50.702Z,11.87
2017-11-13T18:18:21.047Z,13.87
2017-11-13T18:20:50.870Z,21.00
2017-11-13T18:23:21.474Z,15.80
2017-11-13T18:25:51.837Z,21.93
2017-11-13T18:28:22.096Z,18.97
2017-11-13T18:30:51.483Z,17.30
2017-11-13T18:33:21.661Z,10.70
2017-11-13T18:35:51.089Z,22.47
2017-11-13T18:38:20.470Z,18.20
2017-11-13T18:40:50.733Z,13.63
2017-11-13T18:43:21.211Z,14.33
2017-11-13T18:45:50.585Z,15.97
2017-11-13T18:48:22.200Z,20.70
2017-11-13T18:50:52.459Z,19.00
2017-11-13T18:53:21.837Z,12.20
2017-11-13T18:55:51.211Z,17.17
2017-11-13T18:58:21.164Z,22.73
2017-11-13T19:00:50.561Z,20.53
2017-11-13T19:03:20.804Z,18.30
2017-11-13T19:05:51.686Z,18.87
2017-11-13T19:08:21.742Z,14.70
2017-11-13T19:10:51.288Z,14.90
2017-11-13T19:13:21.711Z,19.90
2017-11-13T19:15:50.997Z,14.63
2017-11-13T19:18:20.661Z,14.73
2017-11-13T19:20:49.859Z,15.43
2017-11-13T19:23:20.990Z,20.47
2017-11-13T19:25:52.060Z,18.53
2017-11-13T19:28:21.589Z,19.40
2017-11-13T19:30:50.809Z,21.33
2017-11-13T19:33:20.204Z,25.47
2017-11-13T19:35:50.107Z,23.40
2017-11-13T19:38:20.519Z,24.27
2017-11-13T19:40:49.755Z,18.23
2017-11-13T19:43:19.287Z,18.67
2017-11-13T19:45:48.690Z,22.57
2017-11-13T19:48:18.321Z,28.03
2017-11-13T19:50:48.022Z,26.07
2017-11-13T19:53:18.166Z,30.33
2017-11-13T19:55:48.516Z,29.20
2017-11-13T19:58:17.982Z,31.43
2017-11-13T20:00:47.424Z,25.83
2017-11-13T20:03:16.607Z,21.77
2017-11-13T20:05:45.994Z,16.07
2017-11-13T20:08:15.369Z,28.00
2017-11-13T20:10:45.038Z,21.77
2017-11-13T20:13:14.402Z,29.23
2017-11-13T20:15:44.615Z,16.77
2017-11-13T20:18:14.252Z,21.67
2017-11-13T20:20:43.705Z,21.77
2017-11-13T20:23:13.076Z,20.83
2017-11-13T20:25:42.453Z,18.47
2017-11-13T20:28:11.838Z,17.97
2017-11-13T20:30:41.209Z,20.03
2017-11-13T20:33:11.851Z,27.37
2017-11-13T20:35:42.265Z,20.17
2017-11-13T20:38:11.893Z,24.13
2017-11-13T20:40:41.274Z,15.43
2017-11-13T20:43:10.650Z,21.30
2017-11-13T20:45:40.286Z,28.60
2017-11-13T20:48:09.681Z,16.57
2017-11-13T20:50:39.822Z,22.50
2017-11-13T20:53:10.315Z,30.90
2017-11-13T20:55:39.511Z,22.27
2017-11-13T20:58:08.942Z,25.23
2017-11-13T21:00:38.140Z,20.03
2017-11-13T21:03:08.093Z,21.23
2017-11-13T21:05:37.509Z,26.93
2017-11-13T21:08:07.955Z,26.57
2017-11-13T21:10:37.326Z,25.03
2017-11-13T21:13:06.718Z,18.90
2017-11-13T21:15:37.403Z,20.07
2017-11-13T21:18:06.793Z,22.33
2017-11-13T21:20:36.171Z,20.90
2017-11-13T21:23:05.799Z,22.07
2017-11-13T21:25:35.176Z,24.70
2017-11-13T21:28:04.587Z,21.37
2017-11-13T21:30:33.987Z,24.77
2017-11-13T21:33:03.359Z,19.40
2017-11-13T21:35:32.916Z,21.93
2017-11-13T21:38:02.116Z,19.57
2017-11-13T21:40:31.473Z,24.67
2017-11-13T21:43:00.861Z,20.07
2017-11-13T21:45:30.222Z,23.23
2017-11-13T21:47:59.637Z,22.50
2017-11-13T21:50:29.816Z,21.30
2017-11-13T21:52:59.439Z,25.77
2017-11-13T21:55:28.878Z,34.73
2017-11-13T21:57:58.266Z,28.57
2017-11-13T22:00:28.064Z,21.67
2017-11-13T22:02:57.256Z,27.93
2017-11-13T22:05:26.624Z,27.07
2017-11-13T22:07:56.059Z,23.33
2017-11-13T22:10:25.501Z,28.13
2017-11-13T22:12:54.881Z,26.20
2017-11-13T22:15:24.453Z,19.50
2017-11-13T22:17:53.656Z,28.07
2017-11-13T22:20:23.040Z,23.17
2017-11-13T22:22:52.823Z,30.17
2017-11-13T22:25:22.023Z,19.87
2017-11-13T22:27:51.424Z,22.67
2017-11-13T22:30:21.112Z,30.17
2017-11-13T22:32:50.495Z,27.63
2017-11-13T22:35:19.865Z,24.27
2017-11-13T22:37:49.780Z,27.53
2017-11-13T22:40:20.113Z,30.60
2017-11-13T22:42:49.659Z,24.10
2017-11-13T22:45:19.112Z,32.40
2017-11-13T22:47:48.618Z,23.77
2017-11-13T22:50:18.100Z,25.63
2017-11-13T22:52:47.474Z,28.27
2017-11-13T22:55:16.853Z,23.17
2017-11-13T22:57:46.339Z,29.57
2017-11-13T23:00:15.734Z,31.60
2017-11-13T23:02:45.680Z,32.70
2017-11-13T23:05:15.835Z,29.63
2017-11-13T23:07:45.254Z,37.17
2017-11-13T23:10:15.409Z,28.83
2017-11-13T23:12:44.974Z,32.17
2017-11-13T23:15:14.350Z,33.53
2017-11-13T23:17:44.499Z,34.13
2017-11-13T23:20:15.307Z,29.70
2017-11-13T23:22:44.681Z,42.73
2017-11-13T23:25:14.077Z,35.07
2017-11-13T23:27:43.681Z,36.37
2017-11-13T23:30:13.078Z,35.17
2017-11-13T23:32:43.252Z,31.97
2017-11-13T23:35:12.640Z,42.20
2017-11-13T23:37:42.781Z,35.80
2017-11-13T23:40:12.943Z,34.23
2017-11-13T23:42:44.103Z,24.03
2017-11-13T23:45:14.075Z,40.10
2017-11-13T23:47:43.461Z,34.90
2017-11-13T23:50:12.637Z,35.73
2017-11-13T23:52:42.040Z,30.33
2017-11-13T23:55:11.236Z,24.63
2017-11-13T23:57:41.386Z,32.53
